sensor_id;sensor_type;location;lat;lon;timestamp;P1;durP1;ratioP1;P2;durP2;ratioP2
47713;SDS011;33475;46.614;13.888;2022-08-03T00:01:39;4.13;;;2.00;;
47713;SDS011;33475;46.614;13.888;2022-08-03T00:04:05;3.13;;;2.45;;
47713;SDS011;33475;46.614;13.888;2022-08-03T00:06:32;6.82;;;2.72;;
47713;SDS011;33475;46.614;13.888;2022-08-03T00:08:58;5.28;;;2.47;;
47713;SDS011;33475;46.614;13.888;2022-08-03T00:11:24;4.63;;;2.03;;
47713;SDS011;33475;46.614;13.888;2022-08-03T00:13:51;3.03;;;2.08;;
47713;SDS011;33475;46.614;13.888;2022-08-03T00:16:17;5.07;;;2.22;;
47713;SDS011;33475;46.614;13.888;2022-08-03T00:18:43;5.10;;;1.95;;
47713;SDS011;33475;46.614;13.888;2022-08-03T00:21:10;1.98;;;1.73;;
47713;SDS011;33475;46.614;13.888;2022-08-03T00:23:36;2.10;;;1.90;;
47713;SDS011;33475;46.614;13.888;2022-08-03T00:26:03;3.30;;;2.17;;
47713;SDS011;33475;46.614;13.888;2022-08-03T00:28:29;2.75;;;2.30;;
47713;SDS011;33475;46.614;13.888;2022-08-03T00:30:55;1.95;;;1.83;;
47713;SDS011;33475;46.614;13.888;2022-08-03T00:33:22;4.80;;;2.00;;
47713;SDS011;33475;46.614;13.888;2022-08-03T00:35:48;4.43;;;2.00;;
47713;SDS011;33475;46.614;13.888;2022-08-03T00:38:14;4.25;;;2.10;;
47713;SDS011;33475;46.614;13.888;2022-08-03T00:40:40;7.22;;;2.17;;
47713;SDS011;33475;46.614;13.888;2022-08-03T00:43:07;2.45;;;2.22;;
47713;SDS011;33475;46.614;13.888;2022-08-03T00:45:35;6.63;;;2.45;;
47713;SDS011;33475;46.614;13.888;2022-08-03T00:48:02;3.40;;;2.35;;
47713;SDS011;33475;46.614;13.888;2022-08-03T00:50:30;4.45;;;2.53;;
47713;SDS011;33475;46.614;13.888;2022-08-03T00:52:58;3.17;;;2.70;;
47713;SDS011;33475;46.614;13.888;2022-08-03T00:55:25;2.72;;;2.25;;
47713;SDS011;33475;46.614;13.888;2022-08-03T00:57:51;3.22;;;1.70;;
47713;SDS011;33475;46.614;13.888;2022-08-03T01:00:25;2.30;;;1.92;;
47713;SDS011;33475;46.614;13.888;2022-08-03T01:02:51;1.80;;;1.70;;
47713;SDS011;33475;46.614;13.888;2022-08-03T01:05:18;3.22;;;2.03;;
47713;SDS011;33475;46.614;13.888;2022-08-03T01:07:49;4.82;;;1.83;;
47713;SDS011;33475;46.614;13.888;2022-08-03T01:15:45;3.45;;;1.90;;
47713;SDS011;33475;46.614;13.888;2022-08-03T01:18:19;4.50;;;1.80;;
47713;SDS011;33475;46.614;13.888;2022-08-03T01:20:50;2.90;;;1.80;;
47713;SDS011;33475;46.614;13.888;2022-08-03T01:23:41;2.55;;;1.90;;
47713;SDS011;33475;46.614;13.888;2022-08-03T01:26:12;2.20;;;1.90;;
47713;SDS011;33475;46.614;13.888;2022-08-03T01:31:12;2.45;;;1.73;;
47713;SDS011;33475;46.614;13.888;2022-08-03T01:33:45;1.98;;;1.73;;
47713;SDS011;33475;46.614;13.888;2022-08-03T01:36:14;4.00;;;1.90;;
47713;SDS011;33475;46.614;13.888;2022-08-03T01:38:42;4.53;;;2.30;;
47713;SDS011;33475;46.614;13.888;2022-08-03T01:41:12;2.22;;;2.03;;
47713;SDS011;33475;46.614;13.888;2022-08-03T01:43:41;2.42;;;2.20;;
47713;SDS011;33475;46.614;13.888;2022-08-03T01:46:11;4.15;;;2.20;;
47713;SDS011;33475;46.614;13.888;2022-08-03T01:48:38;5.93;;;2.30;;
47713;SDS011;33475;46.614;13.888;2022-08-03T01:51:05;4.32;;;2.47;;
47713;SDS011;33475;46.614;13.888;2022-08-03T01:53:31;4.05;;;2.05;;
47713;SDS011;33475;46.614;13.888;2022-08-03T01:55:58;2.17;;;1.98;;
47713;SDS011;33475;46.614;13.888;2022-08-03T01:58:25;4.10;;;2.53;;
47713;SDS011;33475;46.614;13.888;2022-08-03T02:00:51;3.08;;;2.28;;
47713;SDS011;33475;46.614;13.888;2022-08-03T02:03:22;2.42;;;2.22;;
47713;SDS011;33475;46.614;13.888;2022-08-03T02:05:49;2.13;;;2.00;;
47713;SDS011;33475;46.614;13.888;2022-08-03T02:08:16;2.60;;;2.40;;
47713;SDS011;33475;46.614;13.888;2022-08-03T02:10:43;5.63;;;1.88;;
47713;SDS011;33475;46.614;13.888;2022-08-03T02:13:10;2.15;;;2.05;;
47713;SDS011;33475;46.614;13.888;2022-08-03T02:15:37;4.88;;;1.77;;
47713;SDS011;33475;46.614;13.888;2022-08-03T02:18:04;2.13;;;1.92;;
47713;SDS011;33475;46.614;13.888;2022-08-03T02:20:33;3.13;;;2.03;;
47713;SDS011;33475;46.614;13.888;2022-08-03T02:23:01;3.47;;;2.15;;
47713;SDS011;33475;46.614;13.888;2022-08-03T02:25:28;3.35;;;2.13;;
47713;SDS011;33475;46.614;13.888;2022-08-03T02:27:55;3.92;;;1.73;;
47713;SDS011;33475;46.614;13.888;2022-08-03T02:30:25;2.15;;;1.95;;
47713;SDS011;33475;46.614;13.888;2022-08-03T02:32:53;2.13;;;1.92;;
47713;SDS011;33475;46.614;13.888;2022-08-03T02:35:20;3.28;;;2.10;;
47713;SDS011;33475;46.614;13.888;2022-08-03T02:37:49;3.25;;;1.60;;
47713;SDS011;33475;46.614;13.888;2022-08-03T02:40:17;2.42;;;2.13;;
47713;SDS011;33475;46.614;13.888;2022-08-03T02:42:43;6.07;;;2.10;;
47713;SDS011;33475;46.614;13.888;2022-08-03T02:45:10;3.28;;;2.13;;
47713;SDS011;33475;46.614;13.888;2022-08-03T02:47:38;2.45;;;2.25;;
47713;SDS011;33475;46.614;13.888;2022-08-03T02:50:05;8.05;;;3.08;;
47713;SDS011;33475;46.614;13.888;2022-08-03T02:52:32;3.40;;;3.10;;
47713;SDS011;33475;46.614;13.888;2022-08-03T02:55:01;7.43;;;2.90;;
47713;SDS011;33475;46.614;13.888;2022-08-03T02:57:29;3.85;;;3.40;;
47713;SDS011;33475;46.614;13.888;2022-08-03T02:59:56;7.95;;;5.28;;
47713;SDS011;33475;46.614;13.888;2022-08-03T03:02:23;14.75;;;7.07;;
47713;SDS011;33475;46.614;13.888;2022-08-03T03:04:50;10.73;;;5.82;;
47713;SDS011;33475;46.614;13.888;2022-08-03T03:07:16;7.55;;;5.20;;
47713;SDS011;33475;46.614;13.888;2022-08-03T03:09:43;8.43;;;5.55;;
47713;SDS011;33475;46.614;13.888;2022-08-03T03:12:10;9.02;;;6.20;;
47713;SDS011;33475;46.614;13.888;2022-08-03T03:14:37;8.82;;;5.80;;
47713;SDS011;33475;46.614;13.888;2022-08-03T03:17:05;8.70;;;5.57;;
47713;SDS011;33475;46.614;13.888;2022-08-03T03:19:32;7.50;;;5.32;;
47713;SDS011;33475;46.614;13.888;2022-08-03T03:21:59;11.38;;;5.60;;
47713;SDS011;33475;46.614;13.888;2022-08-03T03:24:29;8.27;;;5.00;;
47713;SDS011;33475;46.614;13.888;2022-08-03T03:26:55;7.25;;;4.85;;
47713;SDS011;33475;46.614;13.888;2022-08-03T03:29:23;8.05;;;4.68;;
47713;SDS011;33475;46.614;13.888;2022-08-03T03:31:49;8.73;;;4.43;;
47713;SDS011;33475;46.614;13.888;2022-08-03T03:34:15;6.90;;;4.50;;
47713;SDS011;33475;46.614;13.888;2022-08-03T03:36:42;4.28;;;3.17;;
47713;SDS011;33475;46.614;13.888;2022-08-03T03:39:08;6.57;;;3.95;;
47713;SDS011;33475;46.614;13.888;2022-08-03T03:41:35;3.42;;;3.13;;
47713;SDS011;33475;46.614;13.888;2022-08-03T03:44:01;4.95;;;3.13;;
47713;SDS011;33475;46.614;13.888;2022-08-03T03:46:27;5.95;;;3.30;;
47713;SDS011;33475;46.614;13.888;2022-08-03T03:48:54;4.32;;;3.15;;
47713;SDS011;33475;46.614;13.888;2022-08-03T03:51:20;6.53;;;3.63;;
47713;SDS011;33475;46.614;13.888;2022-08-03T03:53:56;4.10;;;3.00;;
47713;SDS011;33475;46.614;13.888;2022-08-03T03:56:23;6.18;;;3.17;;
47713;SDS011;33475;46.614;13.888;2022-08-03T03:58:49;5.00;;;3.60;;
47713;SDS011;33475;46.614;13.888;2022-08-03T04:01:15;6.45;;;3.38;;
47713;SDS011;33475;46.614;13.888;2022-08-03T04:03:42;3.50;;;2.92;;
47713;SDS011;33475;46.614;13.888;2022-08-03T04:06:08;4.57;;;2.92;;
47713;SDS011;33475;46.614;13.888;2022-08-03T04:08:53;2.80;;;2.60;;
47713;SDS011;33475;46.614;13.888;2022-08-03T04:11:44;5.47;;;2.83;;
47713;SDS011;33475;46.614;13.888;2022-08-03T04:14:34;17.33;;;7.13;;
47713;SDS011;33475;46.614;13.888;2022-08-03T04:17:00;13.43;;;6.57;;
47713;SDS011;33475;46.614;13.888;2022-08-03T04:19:28;15.15;;;7.90;;
47713;SDS011;33475;46.614;13.888;2022-08-03T04:21:57;14.98;;;7.95;;
47713;SDS011;33475;46.614;13.888;2022-08-03T04:24:24;15.15;;;5.63;;
47713;SDS011;33475;46.614;13.888;2022-08-03T04:26:52;11.18;;;5.55;;
47713;SDS011;33475;46.614;13.888;2022-08-03T04:29:18;6.97;;;4.82;;
47713;SDS011;33475;46.614;13.888;2022-08-03T04:31:45;4.85;;;3.92;;
47713;SDS011;33475;46.614;13.888;2022-08-03T04:34:13;4.57;;;3.30;;
47713;SDS011;33475;46.614;13.888;2022-08-03T04:36:43;7.55;;;3.25;;
47713;SDS011;33475;46.614;13.888;2022-08-03T04:39:13;3.75;;;2.92;;
47713;SDS011;33475;46.614;13.888;2022-08-03T04:41:41;9.68;;;4.05;;
47713;SDS011;33475;46.614;13.888;2022-08-03T04:44:08;6.75;;;4.18;;
47713;SDS011;33475;46.614;13.888;2022-08-03T04:46:36;9.25;;;4.00;;
47713;SDS011;33475;46.614;13.888;2022-08-03T04:49:04;8.18;;;3.53;;
47713;SDS011;33475;46.614;13.888;2022-08-03T04:51:32;10.32;;;3.22;;
47713;SDS011;33475;46.614;13.888;2022-08-03T04:53:59;6.80;;;3.40;;
47713;SDS011;33475;46.614;13.888;2022-08-03T04:56:26;7.15;;;3.08;;
47713;SDS011;33475;46.614;13.888;2022-08-03T04:58:52;4.70;;;3.00;;
47713;SDS011;33475;46.614;13.888;2022-08-03T05:01:18;2.92;;;1.95;;
47713;SDS011;33475;46.614;13.888;2022-08-03T05:03:45;3.33;;;2.40;;
47713;SDS011;33475;46.614;13.888;2022-08-03T05:06:11;5.70;;;2.20;;
47713;SDS011;33475;46.614;13.888;2022-08-03T05:08:37;4.55;;;1.98;;
47713;SDS011;33475;46.614;13.888;2022-08-03T05:11:04;2.22;;;2.00;;
47713;SDS011;33475;46.614;13.888;2022-08-03T05:13:30;3.20;;;1.48;;
47713;SDS011;33475;46.614;13.888;2022-08-03T05:15:56;1.85;;;1.70;;
47713;SDS011;33475;46.614;13.888;2022-08-03T05:18:22;2.80;;;1.85;;
47713;SDS011;33475;46.614;13.888;2022-08-03T05:20:48;6.18;;;2.00;;
47713;SDS011;33475;46.614;13.888;2022-08-03T05:23:15;3.33;;;1.80;;
47713;SDS011;33475;46.614;13.888;2022-08-03T05:25:41;2.03;;;1.67;;
47713;SDS011;33475;46.614;13.888;2022-08-03T05:28:07;2.25;;;1.60;;
47713;SDS011;33475;46.614;13.888;2022-08-03T05:30:33;3.03;;;1.80;;
47713;SDS011;33475;46.614;13.888;2022-08-03T05:32:59;2.00;;;1.90;;
47713;SDS011;33475;46.614;13.888;2022-08-03T05:35:26;5.47;;;1.80;;
47713;SDS011;33475;46.614;13.888;2022-08-03T05:37:52;2.42;;;1.70;;
47713;SDS011;33475;46.614;13.888;2022-08-03T05:40:19;2.60;;;2.33;;
47713;SDS011;33475;46.614;13.888;2022-08-03T05:42:45;3.53;;;1.90;;
47713;SDS011;33475;46.614;13.888;2022-08-03T05:45:11;2.60;;;1.77;;
47713;SDS011;33475;46.614;13.888;2022-08-03T05:47:45;3.35;;;1.90;;
47713;SDS011;33475;46.614;13.888;2022-08-03T05:50:12;4.25;;;1.85;;
47713;SDS011;33475;46.614;13.888;2022-08-03T05:52:39;4.38;;;1.92;;
47713;SDS011;33475;46.614;13.888;2022-08-03T05:55:07;6.95;;;1.77;;
47713;SDS011;33475;46.614;13.888;2022-08-03T05:57:33;2.92;;;1.90;;
47713;SDS011;33475;46.614;13.888;2022-08-03T06:00:03;5.22;;;2.03;;
47713;SDS011;33475;46.614;13.888;2022-08-03T06:02:30;4.03;;;1.92;;
47713;SDS011;33475;46.614;13.888;2022-08-03T06:04:56;3.92;;;2.38;;
47713;SDS011;33475;46.614;13.888;2022-08-03T06:07:22;3.42;;;2.08;;
47713;SDS011;33475;46.614;13.888;2022-08-03T06:09:49;6.20;;;2.30;;
47713;SDS011;33475;46.614;13.888;2022-08-03T06:12:15;2.00;;;1.88;;
47713;SDS011;33475;46.614;13.888;2022-08-03T06:14:41;2.92;;;1.70;;
47713;SDS011;33475;46.614;13.888;2022-08-03T06:17:07;2.88;;;1.80;;
47713;SDS011;33475;46.614;13.888;2022-08-03T06:19:33;3.95;;;2.25;;
47713;SDS011;33475;46.614;13.888;2022-08-03T06:21:59;3.28;;;1.65;;
47713;SDS011;33475;46.614;13.888;2022-08-03T06:24:25;3.50;;;1.33;;
47713;SDS011;33475;46.614;13.888;2022-08-03T06:26:52;3.50;;;1.58;;
47713;SDS011;33475;46.614;13.888;2022-08-03T06:29:18;1.98;;;1.50;;
47713;SDS011;33475;46.614;13.888;2022-08-03T06:31:44;2.60;;;1.55;;
47713;SDS011;33475;46.614;13.888;2022-08-03T06:34:11;2.08;;;1.42;;
47713;SDS011;33475;46.614;13.888;2022-08-03T06:36:37;1.52;;;1.42;;
47713;SDS011;33475;46.614;13.888;2022-08-03T06:39:03;7.18;;;1.60;;
47713;SDS011;33475;46.614;13.888;2022-08-03T06:41:29;2.28;;;1.42;;
47713;SDS011;33475;46.614;13.888;2022-08-03T06:43:55;2.70;;;1.60;;
47713;SDS011;33475;46.614;13.888;2022-08-03T06:46:22;10.52;;;1.70;;
47713;SDS011;33475;46.614;13.888;2022-08-03T06:48:48;4.68;;;1.60;;
47713;SDS011;33475;46.614;13.888;2022-08-03T06:51:14;3.35;;;1.70;;
47713;SDS011;33475;46.614;13.888;2022-08-03T06:53:40;1.85;;;1.60;;
47713;SDS011;33475;46.614;13.888;2022-08-03T06:56:06;7.50;;;1.35;;
47713;SDS011;33475;46.614;13.888;2022-08-03T06:58:33;1.73;;;1.60;;
47713;SDS011;33475;46.614;13.888;2022-08-03T07:00:59;1.70;;;1.60;;
47713;SDS011;33475;46.614;13.888;2022-08-03T07:03:25;3.30;;;1.55;;
47713;SDS011;33475;46.614;13.888;2022-08-03T07:05:52;3.20;;;1.50;;
47713;SDS011;33475;46.614;13.888;2022-08-03T07:08:18;1.75;;;1.52;;
47713;SDS011;33475;46.614;13.888;2022-08-03T07:10:44;1.40;;;1.27;;
47713;SDS011;33475;46.614;13.888;2022-08-03T07:13:10;3.92;;;1.52;;
47713;SDS011;33475;46.614;13.888;2022-08-03T07:15:36;3.58;;;1.17;;
47713;SDS011;33475;46.614;13.888;2022-08-03T07:18:03;1.20;;;1.10;;
47713;SDS011;33475;46.614;13.888;2022-08-03T07:20:29;4.53;;;1.30;;
47713;SDS011;33475;46.614;13.888;2022-08-03T07:22:55;1.83;;;1.23;;
47713;SDS011;33475;46.614;13.888;2022-08-03T07:25:21;2.30;;;1.38;;
47713;SDS011;33475;46.614;13.888;2022-08-03T07:27:47;2.40;;;1.25;;
47713;SDS011;33475;46.614;13.888;2022-08-03T07:30:14;1.30;;;1.20;;
47713;SDS011;33475;46.614;13.888;2022-08-03T07:32:40;3.15;;;1.45;;
47713;SDS011;33475;46.614;13.888;2022-08-03T07:35:07;1.50;;;1.13;;
47713;SDS011;33475;46.614;13.888;2022-08-03T07:37:34;4.70;;;1.25;;
47713;SDS011;33475;46.614;13.888;2022-08-03T07:40:02;1.38;;;1.27;;
47713;SDS011;33475;46.614;13.888;2022-08-03T07:42:29;1.73;;;1.20;;
47713;SDS011;33475;46.614;13.888;2022-08-03T07:44:55;1.85;;;1.40;;
47713;SDS011;33475;46.614;13.888;2022-08-03T07:47:22;1.67;;;1.27;;
47713;SDS011;33475;46.614;13.888;2022-08-03T07:49:49;2.03;;;1.15;;
47713;SDS011;33475;46.614;13.888;2022-08-03T07:52:15;2.75;;;1.23;;
47713;SDS011;33475;46.614;13.888;2022-08-03T07:55:00;3.47;;;1.60;;
47713;SDS011;33475;46.614;13.888;2022-08-03T07:57:26;2.05;;;1.42;;
47713;SDS011;33475;46.614;13.888;2022-08-03T07:59:52;6.78;;;1.35;;
47713;SDS011;33475;46.614;13.888;2022-08-03T08:02:18;2.78;;;1.40;;
47713;SDS011;33475;46.614;13.888;2022-08-03T08:04:44;4.38;;;1.50;;
47713;SDS011;33475;46.614;13.888;2022-08-03T08:07:10;3.05;;;1.60;;
47713;SDS011;33475;46.614;13.888;2022-08-03T08:09:36;3.70;;;1.33;;
47713;SDS011;33475;46.614;13.888;2022-08-03T08:12:03;4.25;;;1.40;;
47713;SDS011;33475;46.614;13.888;2022-08-03T08:14:29;1.55;;;1.45;;
47713;SDS011;33475;46.614;13.888;2022-08-03T08:16:56;2.65;;;1.50;;
47713;SDS011;33475;46.614;13.888;2022-08-03T08:19:22;3.20;;;1.42;;
47713;SDS011;33475;46.614;13.888;2022-08-03T08:21:48;3.20;;;1.35;;
47713;SDS011;33475;46.614;13.888;2022-08-03T08:24:14;1.95;;;1.38;;
47713;SDS011;33475;46.614;13.888;2022-08-03T08:26:40;5.97;;;1.30;;
47713;SDS011;33475;46.614;13.888;2022-08-03T08:29:06;2.45;;;1.60;;
47713;SDS011;33475;46.614;13.888;2022-08-03T08:31:33;1.35;;;1.20;;
47713;SDS011;33475;46.614;13.888;2022-08-03T08:33:59;2.25;;;1.33;;
47713;SDS011;33475;46.614;13.888;2022-08-03T08:36:30;1.40;;;1.02;;
47713;SDS011;33475;46.614;13.888;2022-08-03T08:38:56;1.52;;;1.42;;
47713;SDS011;33475;46.614;13.888;2022-08-03T08:41:23;1.67;;;1.20;;
47713;SDS011;33475;46.614;13.888;2022-08-03T08:43:49;2.17;;;1.42;;
47713;SDS011;33475;46.614;13.888;2022-08-03T08:46:15;1.92;;;1.30;;
47713;SDS011;33475;46.614;13.888;2022-08-03T08:48:43;1.42;;;1.05;;
47713;SDS011;33475;46.614;13.888;2022-08-03T08:51:10;1.65;;;1.30;;
47713;SDS011;33475;46.614;13.888;2022-08-03T08:53:37;1.85;;;1.02;;
47713;SDS011;33475;46.614;13.888;2022-08-03T08:56:06;5.93;;;1.40;;
47713;SDS011;33475;46.614;13.888;2022-08-03T08:58:36;2.10;;;1.20;;
47713;SDS011;33475;46.614;13.888;2022-08-03T09:01:02;1.42;;;1.30;;
47713;SDS011;33475;46.614;13.888;2022-08-03T09:03:30;4.32;;;1.35;;
47713;SDS011;33475;46.614;13.888;2022-08-03T09:05:58;5.78;;;1.23;;
47713;SDS011;33475;46.614;13.888;2022-08-03T09:08:25;1.55;;;1.23;;
47713;SDS011;33475;46.614;13.888;2022-08-03T09:10:51;1.75;;;1.38;;
47713;SDS011;33475;46.614;13.888;2022-08-03T09:13:17;2.38;;;1.10;;
47713;SDS011;33475;46.614;13.888;2022-08-03T09:15:44;6.50;;;1.30;;
47713;SDS011;33475;46.614;13.888;2022-08-03T09:18:10;3.33;;;1.25;;
47713;SDS011;33475;46.614;13.888;2022-08-03T09:20:37;2.53;;;1.30;;
47713;SDS011;33475;46.614;13.888;2022-08-03T09:23:07;2.15;;;1.10;;
47713;SDS011;33475;46.614;13.888;2022-08-03T09:25:36;2.38;;;1.33;;
47713;SDS011;33475;46.614;13.888;2022-08-03T09:28:12;3.10;;;1.25;;
47713;SDS011;33475;46.614;13.888;2022-08-03T09:30:42;1.40;;;1.20;;
47713;SDS011;33475;46.614;13.888;2022-08-03T09:33:12;1.40;;;1.30;;
47713;SDS011;33475;46.614;13.888;2022-08-03T09:35:42;3.25;;;1.30;;
47713;SDS011;33475;46.614;13.888;2022-08-03T09:40:35;3.67;;;1.30;;
47713;SDS011;33475;46.614;13.888;2022-08-03T09:43:02;2.15;;;1.08;;
47713;SDS011;33475;46.614;13.888;2022-08-03T09:45:28;2.53;;;1.08;;
47713;SDS011;33475;46.614;13.888;2022-08-03T09:47:54;0.90;;;0.90;;
47713;SDS011;33475;46.614;13.888;2022-08-03T09:50:23;2.53;;;1.23;;
47713;SDS011;33475;46.614;13.888;2022-08-03T09:52:50;3.60;;;1.08;;
47713;SDS011;33475;46.614;13.888;2022-08-03T09:55:16;3.58;;;1.10;;
47713;SDS011;33475;46.614;13.888;2022-08-03T09:57:47;1.38;;;1.00;;
47713;SDS011;33475;46.614;13.888;2022-08-03T10:00:14;1.88;;;1.02;;
47713;SDS011;33475;46.614;13.888;2022-08-03T10:02:41;0.77;;;0.75;;
47713;SDS011;33475;46.614;13.888;2022-08-03T10:05:08;6.22;;;1.17;;
47713;SDS011;33475;46.614;13.888;2022-08-03T10:07:44;1.10;;;1.00;;
47713;SDS011;33475;46.614;13.888;2022-08-03T10:10:12;3.25;;;1.20;;
47713;SDS011;33475;46.614;13.888;2022-08-03T10:12:39;1.25;;;1.08;;
47713;SDS011;33475;46.614;13.888;2022-08-03T10:15:06;1.58;;;0.88;;
47713;SDS011;33475;46.614;13.888;2022-08-03T10:17:32;3.35;;;1.15;;
47713;SDS011;33475;46.614;13.888;2022-08-03T10:19:58;3.53;;;1.10;;
47713;SDS011;33475;46.614;13.888;2022-08-03T10:22:32;0.95;;;0.85;;
47713;SDS011;33475;46.614;13.888;2022-08-03T10:25:06;1.23;;;1.13;;
47713;SDS011;33475;46.614;13.888;2022-08-03T10:27:33;1.20;;;0.90;;
47713;SDS011;33475;46.614;13.888;2022-08-03T10:30:00;6.68;;;1.10;;
47713;SDS011;33475;46.614;13.888;2022-08-03T10:35:15;0.82;;;0.80;;
47713;SDS011;33475;46.614;13.888;2022-08-03T10:37:53;3.35;;;1.00;;
47713;SDS011;33475;46.614;13.888;2022-08-03T10:40:21;1.63;;;0.80;;
47713;SDS011;33475;46.614;13.888;2022-08-03T10:42:48;1.77;;;0.90;;
47713;SDS011;33475;46.614;13.888;2022-08-03T10:45:20;2.25;;;1.00;;
47713;SDS011;33475;46.614;13.888;2022-08-03T10:47:46;2.78;;;1.00;;
47713;SDS011;33475;46.614;13.888;2022-08-03T10:50:13;3.35;;;1.20;;
47713;SDS011;33475;46.614;13.888;2022-08-03T10:52:58;1.00;;;0.88;;
47713;SDS011;33475;46.614;13.888;2022-08-03T11:01:13;1.23;;;0.88;;
47713;SDS011;33475;46.614;13.888;2022-08-03T11:06:19;0.65;;;0.60;;
47713;SDS011;33475;46.614;13.888;2022-08-03T11:08:46;1.45;;;0.80;;
47713;SDS011;33475;46.614;13.888;2022-08-03T11:16:33;2.25;;;1.00;;
47713;SDS011;33475;46.614;13.888;2022-08-03T11:19:03;2.05;;;1.05;;
47713;SDS011;33475;46.614;13.888;2022-08-03T11:46:00;0.75;;;0.65;;
47713;SDS011;33475;46.614;13.888;2022-08-03T11:48:31;3.22;;;0.80;;
47713;SDS011;33475;46.614;13.888;2022-08-03T11:50:59;1.27;;;0.50;;
47713;SDS011;33475;46.614;13.888;2022-08-03T11:53:26;4.05;;;0.60;;
47713;SDS011;33475;46.614;13.888;2022-08-03T11:55:56;0.75;;;0.60;;
47713;SDS011;33475;46.614;13.888;2022-08-03T11:58:23;7.03;;;0.88;;
47713;SDS011;33475;46.614;13.888;2022-08-03T12:00:49;0.57;;;0.50;;
47713;SDS011;33475;46.614;13.888;2022-08-03T12:03:17;1.85;;;0.70;;
47713;SDS011;33475;46.614;13.888;2022-08-03T12:05:47;1.92;;;0.93;;
47713;SDS011;33475;46.614;13.888;2022-08-03T12:08:15;0.73;;;0.50;;
47713;SDS011;33475;46.614;13.888;2022-08-03T12:10:46;2.08;;;0.47;;
47713;SDS011;33475;46.614;13.888;2022-08-03T12:13:12;2.30;;;0.60;;
47713;SDS011;33475;46.614;13.888;2022-08-03T12:15:39;0.77;;;0.52;;
47713;SDS011;33475;46.614;13.888;2022-08-03T12:18:15;0.68;;;0.40;;
47713;SDS011;33475;46.614;13.888;2022-08-03T12:20:42;1.05;;;0.40;;
47713;SDS011;33475;46.614;13.888;2022-08-03T12:23:09;3.85;;;0.90;;
47713;SDS011;33475;46.614;13.888;2022-08-03T12:25:36;0.82;;;0.52;;
47713;SDS011;33475;46.614;13.888;2022-08-03T12:28:08;1.17;;;0.35;;
47713;SDS011;33475;46.614;13.888;2022-08-03T12:30:35;0.65;;;0.40;;
47713;SDS011;33475;46.614;13.888;2022-08-03T12:33:11;1.65;;;0.57;;
47713;SDS011;33475;46.614;13.888;2022-08-03T12:35:37;1.67;;;0.50;;
47713;SDS011;33475;46.614;13.888;2022-08-03T12:38:03;1.77;;;0.70;;
47713;SDS011;33475;46.614;13.888;2022-08-03T12:40:30;1.98;;;0.40;;
47713;SDS011;33475;46.614;13.888;2022-08-03T12:42:56;1.38;;;0.50;;
47713;SDS011;33475;46.614;13.888;2022-08-03T12:45:23;2.28;;;0.70;;
47713;SDS011;33475;46.614;13.888;2022-08-03T12:52:51;0.52;;;0.52;;
47713;SDS011;33475;46.614;13.888;2022-08-03T12:55:21;0.50;;;0.50;;
47713;SDS011;33475;46.614;13.888;2022-08-03T12:57:47;1.65;;;0.52;;
47713;SDS011;33475;46.614;13.888;2022-08-03T13:00:15;1.23;;;0.70;;
47713;SDS011;33475;46.614;13.888;2022-08-03T13:02:41;0.57;;;0.50;;
47713;SDS011;33475;46.614;13.888;2022-08-03T13:05:12;6.57;;;0.90;;
47713;SDS011;33475;46.614;13.888;2022-08-03T13:07:42;1.08;;;0.50;;
47713;SDS011;33475;46.614;13.888;2022-08-03T13:10:08;0.50;;;0.50;;
47713;SDS011;33475;46.614;13.888;2022-08-03T13:12:47;1.58;;;0.45;;
47713;SDS011;33475;46.614;13.888;2022-08-03T13:15:14;4.20;;;0.40;;
47713;SDS011;33475;46.614;13.888;2022-08-03T13:17:40;3.67;;;0.70;;
47713;SDS011;33475;46.614;13.888;2022-08-03T13:20:07;1.00;;;0.50;;
47713;SDS011;33475;46.614;13.888;2022-08-03T13:22:33;1.20;;;0.52;;
47713;SDS011;33475;46.614;13.888;2022-08-03T13:25:00;0.57;;;0.40;;
47713;SDS011;33475;46.614;13.888;2022-08-03T13:27:27;0.93;;;0.50;;
47713;SDS011;33475;46.614;13.888;2022-08-03T13:29:55;0.60;;;0.60;;
47713;SDS011;33475;46.614;13.888;2022-08-03T13:32:22;0.80;;;0.50;;
47713;SDS011;33475;46.614;13.888;2022-08-03T13:34:48;3.10;;;0.40;;
47713;SDS011;33475;46.614;13.888;2022-08-03T13:37:14;0.82;;;0.50;;
47713;SDS011;33475;46.614;13.888;2022-08-03T13:39:41;0.45;;;0.45;;
47713;SDS011;33475;46.614;13.888;2022-08-03T13:42:07;0.40;;;0.40;;
47713;SDS011;33475;46.614;13.888;2022-08-03T13:44:33;7.88;;;0.55;;
47713;SDS011;33475;46.614;13.888;2022-08-03T13:47:03;4.43;;;0.50;;
47713;SDS011;33475;46.614;13.888;2022-08-03T13:49:30;0.90;;;0.60;;
47713;SDS011;33475;46.614;13.888;2022-08-03T13:51:56;3.25;;;0.40;;
47713;SDS011;33475;46.614;13.888;2022-08-03T13:54:23;1.05;;;0.52;;
47713;SDS011;33475;46.614;13.888;2022-08-03T13:56:49;0.50;;;0.50;;
47713;SDS011;33475;46.614;13.888;2022-08-03T13:59:22;0.85;;;0.50;;
47713;SDS011;33475;46.614;13.888;2022-08-03T14:01:48;22.20;;;1.50;;
47713;SDS011;33475;46.614;13.888;2022-08-03T14:04:15;1.15;;;0.50;;
47713;SDS011;33475;46.614;13.888;2022-08-03T14:06:41;1.75;;;0.40;;
47713;SDS011;33475;46.614;13.888;2022-08-03T14:09:11;3.70;;;0.50;;
47713;SDS011;33475;46.614;13.888;2022-08-03T14:11:38;0.77;;;0.40;;
47713;SDS011;33475;46.614;13.888;2022-08-03T14:14:04;0.43;;;0.30;;
47713;SDS011;33475;46.614;13.888;2022-08-03T14:16:30;0.82;;;0.82;;
47713;SDS011;33475;46.614;13.888;2022-08-03T14:18:56;0.82;;;0.40;;
47713;SDS011;33475;46.614;13.888;2022-08-03T14:21:22;2.20;;;0.43;;
47713;SDS011;33475;46.614;13.888;2022-08-03T14:23:49;0.77;;;0.40;;
47713;SDS011;33475;46.614;13.888;2022-08-03T14:26:15;0.32;;;0.30;;
47713;SDS011;33475;46.614;13.888;2022-08-03T14:28:42;4.68;;;0.50;;
47713;SDS011;33475;46.614;13.888;2022-08-03T14:31:09;1.63;;;0.30;;
47713;SDS011;33475;46.614;13.888;2022-08-03T14:33:35;0.95;;;0.45;;
47713;SDS011;33475;46.614;13.888;2022-08-03T14:36:01;0.50;;;0.50;;
47713;SDS011;33475;46.614;13.888;2022-08-03T14:38:27;0.80;;;0.55;;
47713;SDS011;33475;46.614;13.888;2022-08-03T14:40:53;1.67;;;0.40;;
47713;SDS011;33475;46.614;13.888;2022-08-03T14:43:20;2.13;;;0.40;;
47713;SDS011;33475;46.614;13.888;2022-08-03T14:45:50;0.63;;;0.60;;
47713;SDS011;33475;46.614;13.888;2022-08-03T14:48:18;0.57;;;0.40;;
47713;SDS011;33475;46.614;13.888;2022-08-03T14:50:44;7.75;;;0.40;;
47713;SDS011;33475;46.614;13.888;2022-08-03T14:53:11;1.40;;;0.60;;
47713;SDS011;33475;46.614;13.888;2022-08-03T14:55:37;0.52;;;0.30;;
47713;SDS011;33475;46.614;13.888;2022-08-03T14:58:04;0.75;;;0.40;;
47713;SDS011;33475;46.614;13.888;2022-08-03T15:00:31;0.43;;;0.43;;
47713;SDS011;33475;46.614;13.888;2022-08-03T15:02:58;0.40;;;0.40;;
47713;SDS011;33475;46.614;13.888;2022-08-03T15:05:24;3.72;;;0.45;;
47713;SDS011;33475;46.614;13.888;2022-08-03T15:07:50;0.60;;;0.50;;
47713;SDS011;33475;46.614;13.888;2022-08-03T15:10:17;0.65;;;0.40;;
47713;SDS011;33475;46.614;13.888;2022-08-03T15:12:43;0.98;;;0.43;;
47713;SDS011;33475;46.614;13.888;2022-08-03T15:15:09;0.55;;;0.55;;
47713;SDS011;33475;46.614;13.888;2022-08-03T15:17:35;0.98;;;0.45;;
47713;SDS011;33475;46.614;13.888;2022-08-03T15:20:02;2.15;;;0.40;;
47713;SDS011;33475;46.614;13.888;2022-08-03T15:22:29;0.43;;;0.43;;
47713;SDS011;33475;46.614;13.888;2022-08-03T15:24:55;0.43;;;0.38;;
47713;SDS011;33475;46.614;13.888;2022-08-03T15:27:21;0.88;;;0.50;;
47713;SDS011;33475;46.614;13.888;2022-08-03T15:29:48;1.02;;;0.40;;
47713;SDS011;33475;46.614;13.888;2022-08-03T15:32:14;2.15;;;0.60;;